createdAt,value
2022-09-27T00:01:46.415Z,3.20
2022-09-27T00:04:33.370Z,3.33
2022-09-27T00:07:20.232Z,3.87
2022-09-27T00:10:08.400Z,4.10
2022-09-27T00:12:55.108Z,5.53
2022-09-27T00:15:43.023Z,3.50
2022-09-27T00:18:29.888Z,4.30
2022-09-27T00:21:16.586Z,5.53
2022-09-27T00:24:03.818Z,4.33
2022-09-27T00:26:50.757Z,5.03
2022-09-27T00:29:37.804Z,5.97
2022-09-27T00:32:25.579Z,7.57
2022-09-27T00:35:12.280Z,7.77
2022-09-27T00:37:58.560Z,8.70
2022-09-27T00:40:45.645Z,9.50
2022-09-27T00:43:45.859Z,11.13
2022-09-27T00:46:38.137Z,10.80
2022-09-27T00:49:29.463Z,9.83
2022-09-27T00:52:22.592Z,8.40
2022-09-27T00:55:13.872Z,11.73
2022-09-27T00:58:01.652Z,10.27
2022-09-27T01:00:52.847Z,14.37
2022-09-27T01:03:45.279Z,11.13
2022-09-27T01:06:33.340Z,10.33
2022-09-27T01:09:21.360Z,9.40
2022-09-27T01:12:18.664Z,7.87
2022-09-27T01:15:14.502Z,7.70
2022-09-27T01:18:16.556Z,8.50
2022-09-27T01:21:35.269Z,10.53
2022-09-27T01:24:45.220Z,8.73
2022-09-27T01:28:05.619Z,7.90
2022-09-27T01:31:01.266Z,9.13
2022-09-27T01:33:57.112Z,7.57
2022-09-27T01:36:49.906Z,8.97
2022-09-27T01:39:45.012Z,6.50
2022-09-27T01:42:40.009Z,6.73
2022-09-27T01:45:32.377Z,8.40
2022-09-27T01:48:23.803Z,6.67
2022-09-27T01:51:14.709Z,7.97
2022-09-27T01:54:04.258Z,8.77
2022-09-27T01:56:54.061Z,8.40
2022-09-27T01:59:46.200Z,8.90
2022-09-27T02:02:36.606Z,8.23
2022-09-27T02:05:31.043Z,9.63
2022-09-27T02:08:27.802Z,7.73
2022-09-27T02:11:16.115Z,8.97
2022-09-27T02:14:07.586Z,9.10
2022-09-27T02:16:55.800Z,9.03
2022-09-27T02:19:52.410Z,9.73
2022-09-27T02:22:45.272Z,9.90
2022-09-27T02:25:39.841Z,9.73
2022-09-27T02:28:29.989Z,10.23
2022-09-27T02:31:16.835Z,12.13
2022-09-27T02:34:07.303Z,9.63
2022-09-27T02:36:54.435Z,10.80
2022-09-27T02:39:42.439Z,10.50
2022-09-27T02:42:29.648Z,9.03
2022-09-27T02:45:19.458Z,11.60
2022-09-27T02:48:16.799Z,9.10
2022-09-27T02:51:18.246Z,9.27
2022-09-27T02:54:17.845Z,9.33
2022-09-27T02:57:18.656Z,7.70
2022-09-27T03:00:10.010Z,7.87
2022-09-27T03:03:03.892Z,9.37
2022-09-27T03:05:54.952Z,7.47
2022-09-27T03:08:42.005Z,5.03
2022-09-27T03:11:28.468Z,5.97
2022-09-27T03:14:16.529Z,5.43
2022-09-27T03:17:03.472Z,7.33
2022-09-27T03:19:50.681Z,7.83
2022-09-27T03:22:38.213Z,7.43
2022-09-27T03:25:24.886Z,5.60
2022-09-27T03:28:11.212Z,4.83
2022-09-27T03:30:58.999Z,8.53
2022-09-27T03:33:45.492Z,3.77
2022-09-27T03:36:31.945Z,6.67
2022-09-27T03:39:18.520Z,2.80
2022-09-27T03:42:05.052Z,4.30
2022-09-27T03:44:52.266Z,4.67
2022-09-27T03:47:42.727Z,4.27
2022-09-27T03:50:29.427Z,6.53
2022-09-27T03:53:15.757Z,4.30
2022-09-27T03:56:02.744Z,4.07
2022-09-27T03:58:49.271Z,10.23
2022-09-27T04:01:37.756Z,4.13
2022-09-27T04:04:25.798Z,8.27
2022-09-27T04:07:12.277Z,8.90
2022-09-27T04:09:58.509Z,4.97
2022-09-27T04:12:45.904Z,8.80
2022-09-27T04:15:32.435Z,8.80
2022-09-27T04:18:18.726Z,7.17
2022-09-27T04:21:07.040Z,7.10
2022-09-27T04:23:53.464Z,5.13
2022-09-27T04:26:40.599Z,10.63
2022-09-27T04:29:28.052Z,3.80
2022-09-27T04:32:15.007Z,7.87
2022-09-27T04:35:18.901Z,9.60
2022-09-27T04:38:06.879Z,11.27
2022-09-27T04:40:53.743Z,8.27
2022-09-27T04:43:40.892Z,6.83
2022-09-27T04:46:29.822Z,6.27
2022-09-27T04:49:17.800Z,7.00
2022-09-27T04:52:06.073Z,6.10
2022-09-27T04:54:53.882Z,10.03
2022-09-27T04:57:40.479Z,9.40
2022-09-27T05:00:27.255Z,4.67
2022-09-27T05:03:14.971Z,10.00
2022-09-27T05:06:01.681Z,8.37
2022-09-27T05:08:47.974Z,6.60
2022-09-27T05:11:37.998Z,7.23
2022-09-27T05:17:18.725Z,10.67
2022-09-27T05:20:06.009Z,8.27
2022-09-27T05:22:52.403Z,6.83
2022-09-27T05:25:38.732Z,6.77
2022-09-27T05:28:26.560Z,8.90
2022-09-27T05:31:13.444Z,7.43
2022-09-27T05:34:00.173Z,6.03
2022-09-27T05:36:48.242Z,7.00
2022-09-27T05:39:34.624Z,5.60
2022-09-27T05:42:21.546Z,7.70
2022-09-27T05:45:10.640Z,8.53
2022-09-27T05:47:58.181Z,6.30
2022-09-27T05:50:44.828Z,8.23
2022-09-27T05:53:32.457Z,6.17
2022-09-27T05:56:19.272Z,6.27
2022-09-27T05:59:05.798Z,6.03
2022-09-27T06:01:54.448Z,4.97
2022-09-27T06:04:41.137Z,6.13
2022-09-27T06:07:29.008Z,4.83
2022-09-27T06:10:15.723Z,6.63
2022-09-27T06:13:03.396Z,5.37
2022-09-27T06:15:51.011Z,4.17
2022-09-27T06:18:39.323Z,3.03
2022-09-27T06:21:26.100Z,3.87
2022-09-27T06:24:13.185Z,4.53
2022-09-27T06:26:59.905Z,4.40
2022-09-27T06:29:46.261Z,4.93
2022-09-27T06:32:32.770Z,3.40
2022-09-27T06:35:22.095Z,8.63
2022-09-27T06:38:10.216Z,5.33
2022-09-27T06:40:58.471Z,4.87
2022-09-27T06:43:45.364Z,5.87
2022-09-27T06:46:32.165Z,3.40
2022-09-27T06:49:18.541Z,4.50
2022-09-27T06:52:06.616Z,5.63
2022-09-27T06:54:53.074Z,3.73
2022-09-27T06:57:56.846Z,2.63
2022-09-27T07:00:43.775Z,9.93
2022-09-27T07:03:40.202Z,6.47
2022-09-27T07:06:27.651Z,4.90
2022-09-27T07:09:15.779Z,4.50
2022-09-27T07:12:02.852Z,6.33
2022-09-27T07:14:49.882Z,6.33
2022-09-27T07:17:37.384Z,5.17
2022-09-27T07:20:23.998Z,3.33
2022-09-27T07:23:11.861Z,4.20
2022-09-27T07:26:04.233Z,4.17
2022-09-27T07:28:50.660Z,3.50
2022-09-27T07:31:38.650Z,3.73
2022-09-27T07:34:25.231Z,2.97
2022-09-27T07:37:11.604Z,2.30
2022-09-27T07:39:58.072Z,4.33
2022-09-27T07:42:45.899Z,4.20
2022-09-27T07:45:33.068Z,2.37
2022-09-27T07:48:19.860Z,2.20
2022-09-27T07:51:07.778Z,1.90
2022-09-27T07:53:53.988Z,3.00
2022-09-27T07:56:40.351Z,2.77
2022-09-27T07:59:28.058Z,3.47
2022-09-27T08:02:16.327Z,3.90
2022-09-27T08:05:04.052Z,2.60
2022-09-27T08:07:56.412Z,2.73
2022-09-27T08:10:44.233Z,2.40
2022-09-27T08:13:30.951Z,2.97
2022-09-27T08:16:18.667Z,1.43
2022-09-27T08:19:05.256Z,1.57
2022-09-27T08:21:58.697Z,2.03
2022-09-27T08:24:45.892Z,1.70
2022-09-27T08:27:32.272Z,1.20
2022-09-27T08:30:18.767Z,1.43
2022-09-27T08:33:06.791Z,1.73
2022-09-27T08:35:53.190Z,4.93
2022-09-27T08:38:39.722Z,3.80
2022-09-27T08:41:33.892Z,1.90
2022-09-27T08:44:28.532Z,9.03
2022-09-27T08:47:18.492Z,4.23
2022-09-27T08:50:20.120Z,1.93
2022-09-27T08:53:15.923Z,3.00
2022-09-27T08:56:03.459Z,3.00
2022-09-27T08:58:53.893Z,2.20
2022-09-27T09:01:41.315Z,1.97
2022-09-27T09:04:33.521Z,3.73
2022-09-27T09:07:38.455Z,1.40
2022-09-27T09:11:01.396Z,3.93
2022-09-27T09:14:13.791Z,3.63
2022-09-27T09:17:11.561Z,2.67
2022-09-27T09:20:17.644Z,4.30
2022-09-27T09:23:24.761Z,1.63
2022-09-27T09:26:18.939Z,1.80
2022-09-27T09:29:17.964Z,5.13
2022-09-27T09:32:13.409Z,2.43
2022-09-27T09:35:03.216Z,2.23
2022-09-27T09:37:52.100Z,4.63
2022-09-27T09:40:43.700Z,1.80
2022-09-27T09:43:34.783Z,3.30
2022-09-27T09:46:26.242Z,4.03
2022-09-27T09:49:19.367Z,4.67
2022-09-27T09:52:11.452Z,2.60
2022-09-27T09:55:03.887Z,1.03
2022-09-27T09:58:02.029Z,4.17
2022-09-27T10:00:49.882Z,0.83
2022-09-27T10:03:36.657Z,1.43
2022-09-27T10:06:24.344Z,0.83
2022-09-27T10:09:12.924Z,1.20
2022-09-27T10:11:59.347Z,2.63
2022-09-27T10:14:49.606Z,1.20
2022-09-27T10:17:39.626Z,0.60
2022-09-27T10:20:35.120Z,1.20
2022-09-27T10:23:25.308Z,2.00
2022-09-27T10:26:12.359Z,1.60
2022-09-27T10:28:59.542Z,2.63
2022-09-27T10:31:48.772Z,1.57
2022-09-27T10:34:38.400Z,5.43
2022-09-27T10:37:25.208Z,1.63
2022-09-27T10:40:29.072Z,2.30
2022-09-27T10:43:29.673Z,2.00
2022-09-27T10:46:28.344Z,1.70
2022-09-27T10:49:21.016Z,1.63
2022-09-27T10:52:15.748Z,2.50
2022-09-27T10:55:09.187Z,1.97
2022-09-27T10:57:56.800Z,1.97
2022-09-27T11:00:43.429Z,1.07
2022-09-27T11:03:31.565Z,2.57
2022-09-27T11:06:37.836Z,3.30
2022-09-27T11:09:26.629Z,2.23
2022-09-27T11:12:14.314Z,1.37
2022-09-27T11:15:05.761Z,3.67
2022-09-27T11:18:01.293Z,2.03
2022-09-27T11:20:53.041Z,0.30
2022-09-27T11:23:56.615Z,0.03
2022-09-27T11:26:54.978Z,0.13
2022-09-27T11:29:55.945Z,0.33
2022-09-27T11:33:25.968Z,0.27
2022-09-27T11:36:20.069Z,0.10
2022-09-27T11:39:13.331Z,0.13
2022-09-27T11:42:13.138Z,0.27
2022-09-27T11:48:39.613Z,0.73
2022-09-27T11:51:42.131Z,1.50
2022-09-27T11:54:48.667Z,0.40
2022-09-27T11:57:39.737Z,0.50
2022-09-27T12:00:35.358Z,0.80
2022-09-27T12:03:53.018Z,0.50
2022-09-27T12:06:49.948Z,0.60
2022-09-27T12:09:41.375Z,2.10
2022-09-27T12:12:32.095Z,0.67
2022-09-27T12:15:21.403Z,0.50
2022-09-27T12:18:13.740Z,0.90
2022-09-27T12:21:03.096Z,1.23
2022-09-27T12:23:53.133Z,0.80
2022-09-27T12:26:43.936Z,3.40
2022-09-27T12:29:34.170Z,4.77
2022-09-27T12:32:26.784Z,3.20
2022-09-27T12:35:20.095Z,1.40
2022-09-27T12:38:14.119Z,1.70
2022-09-27T12:41:02.607Z,1.40
2022-09-27T12:43:51.755Z,1.70
2022-09-27T12:46:48.549Z,3.13
2022-09-27T12:49:48.139Z,2.10
2022-09-27T12:52:41.876Z,3.20
2022-09-27T12:55:57.622Z,0.80
2022-09-27T12:59:13.366Z,2.33
2022-09-27T13:02:27.619Z,1.23
2022-09-27T13:05:41.151Z,2.03
2022-09-27T13:08:45.615Z,1.20
2022-09-27T13:11:44.054Z,1.93
2022-09-27T13:14:35.506Z,4.23
2022-09-27T13:17:56.872Z,1.83
2022-09-27T13:20:48.255Z,3.07
2022-09-27T13:24:02.123Z,0.60
2022-09-27T13:26:52.090Z,0.93
2022-09-27T13:29:40.076Z,1.20
2022-09-27T13:32:29.023Z,0.47
2022-09-27T13:35:23.155Z,1.03
2022-09-27T13:38:23.667Z,1.17
2022-09-27T13:41:18.280Z,0.57
2022-09-27T13:44:10.297Z,1.80
2022-09-27T13:47:01.843Z,0.43
2022-09-27T13:49:50.993Z,1.33
2022-09-27T13:52:38.706Z,0.83
2022-09-27T13:55:44.095Z,0.33
2022-09-27T13:58:47.599Z,0.50
2022-09-27T14:01:37.291Z,1.13
2022-09-27T14:04:28.663Z,0.50
2022-09-27T14:07:18.860Z,0.30
2022-09-27T14:10:06.038Z,0.47
2022-09-27T14:12:54.263Z,1.17
2022-09-27T14:15:40.703Z,0.33
2022-09-27T14:18:27.376Z,0.53
2022-09-27T14:21:23.784Z,2.60
2022-09-27T14:24:45.407Z,0.40
2022-09-27T14:27:36.750Z,0.40
2022-09-27T14:30:25.416Z,0.40
2022-09-27T14:33:29.664Z,0.60
2022-09-27T14:36:44.634Z,0.70
2022-09-27T14:39:35.622Z,0.93
2022-09-27T14:42:23.128Z,1.13
2022-09-27T14:45:21.063Z,0.60
2022-09-27T14:48:21.923Z,0.70
2022-09-27T14:51:22.218Z,0.50
2022-09-27T14:54:20.695Z,0.80
2022-09-27T14:57:08.639Z,0.60
2022-09-27T14:59:57.552Z,1.23
2022-09-27T15:02:44.634Z,0.67
2022-09-27T15:05:34.397Z,0.93
2022-09-27T15:08:24.955Z,1.93
2022-09-27T15:11:12.412Z,0.53
2022-09-27T15:14:00.242Z,0.73
2022-09-27T15:16:48.445Z,0.80
2022-09-27T15:19:35.468Z,1.03
2022-09-27T15:22:34.604Z,0.77
2022-09-27T15:25:34.391Z,1.93
2022-09-27T15:28:21.140Z,1.20
2022-09-27T15:31:08.705Z,1.20
2022-09-27T15:33:57.916Z,1.10
2022-09-27T15:36:54.771Z,2.13
2022-09-27T15:39:42.775Z,3.10
2022-09-27T15:42:55.994Z,1.00
2022-09-27T15:45:50.956Z,1.23
2022-09-27T15:48:37.764Z,0.97
2022-09-27T15:51:40.108Z,1.50
2022-09-27T15:54:30.127Z,1.40
2022-09-27T15:57:16.539Z,1.10
2022-09-27T16:00:05.910Z,1.40
2022-09-27T16:02:52.635Z,0.90
2022-09-27T16:05:39.700Z,1.53
2022-09-27T16:08:27.476Z,7.53
2022-09-27T16:11:17.171Z,11.37
2022-09-27T16:14:03.528Z,5.30
2022-09-27T16:16:53.787Z,5.03
2022-09-27T16:19:40.278Z,1.80
2022-09-27T16:22:26.640Z,2.80
2022-09-27T16:25:13.320Z,4.17
2022-09-27T16:28:00.341Z,5.00
2022-09-27T16:30:47.925Z,1.20
2022-09-27T16:33:36.840Z,2.10
2022-09-27T16:36:23.572Z,2.23
2022-09-27T16:39:13.763Z,4.27
2022-09-27T16:42:04.962Z,2.70
2022-09-27T16:44:52.081Z,2.97
2022-09-27T16:47:39.008Z,1.40
2022-09-27T16:50:44.441Z,12.70
2022-09-27T16:53:31.265Z,1.80
2022-09-27T16:56:20.354Z,2.90
2022-09-27T16:59:07.048Z,1.97
2022-09-27T17:01:57.497Z,4.93
2022-09-27T17:04:44.662Z,7.83
2022-09-27T17:07:32.632Z,1.17
2022-09-27T17:10:19.346Z,1.80
2022-09-27T17:13:06.896Z,2.80
2022-09-27T17:15:53.497Z,1.30
2022-09-27T17:18:40.230Z,1.93
2022-09-27T17:21:26.877Z,2.73
2022-09-27T17:24:14.772Z,1.73
2022-09-27T17:27:01.430Z,1.53
2022-09-27T17:29:47.903Z,1.27
2022-09-27T17:32:34.973Z,1.57
2022-09-27T17:35:21.860Z,4.03
2022-09-27T17:38:08.200Z,2.67
2022-09-27T17:41:02.556Z,4.00
2022-09-27T17:43:50.359Z,1.40
2022-09-27T17:46:38.109Z,1.87
2022-09-27T17:49:42.073Z,3.60
2022-09-27T17:52:30.355Z,2.00
2022-09-27T17:55:17.280Z,1.50
2022-09-27T17:58:06.347Z,2.30
2022-09-27T18:00:53.117Z,2.90
2022-09-27T18:03:39.822Z,1.47
2022-09-27T18:06:26.931Z,22.27
2022-09-27T18:09:16.074Z,11.33
2022-09-27T18:12:03.292Z,3.93
2022-09-27T18:14:51.380Z,3.67
2022-09-27T18:17:38.288Z,3.13
2022-09-27T18:20:24.897Z,2.80
2022-09-27T18:23:11.287Z,5.33
2022-09-27T18:25:58.170Z,5.83
2022-09-27T18:28:44.459Z,3.23
2022-09-27T18:31:32.350Z,5.70
2022-09-27T18:34:19.351Z,3.10
2022-09-27T18:37:05.961Z,2.87
2022-09-27T18:39:52.376Z,6.97
2022-09-27T18:42:38.819Z,5.60
2022-09-27T18:45:25.229Z,8.77
2022-09-27T18:48:13.060Z,13.87
2022-09-27T18:50:59.474Z,9.70
2022-09-27T18:53:46.821Z,5.73
2022-09-27T18:56:38.982Z,4.47
2022-09-27T18:59:25.878Z,9.93
2022-09-27T19:02:12.322Z,14.03
2022-09-27T19:04:59.969Z,11.80
2022-09-27T19:07:46.199Z,5.73
2022-09-27T19:10:32.561Z,18.03
2022-09-27T19:13:19.112Z,17.20
2022-09-27T19:16:06.932Z,11.23
2022-09-27T19:18:54.116Z,20.43
2022-09-27T19:21:42.121Z,19.93
2022-09-27T19:24:28.596Z,14.63
2022-09-27T19:27:15.141Z,8.57
2022-09-27T19:30:01.696Z,10.17
2022-09-27T19:32:49.052Z,16.27
2022-09-27T19:35:35.421Z,11.80
2022-09-27T19:38:23.214Z,12.17
2022-09-27T19:41:11.459Z,11.07
2022-09-27T19:43:58.746Z,12.17
2022-09-27T19:46:46.555Z,8.33
2022-09-27T19:49:33.188Z,10.13
2022-09-27T19:52:19.725Z,7.10
2022-09-27T19:55:08.846Z,4.60
2022-09-27T19:57:57.163Z,4.63
2022-09-27T20:00:43.514Z,5.37
2022-09-27T20:03:30.516Z,17.10
2022-09-27T20:06:19.383Z,11.37
2022-09-27T20:09:06.057Z,6.40
2022-09-27T20:11:54.078Z,6.37
2022-09-27T20:14:42.681Z,7.57
2022-09-27T20:17:33.598Z,8.73
2022-09-27T20:20:20.822Z,3.47
2022-09-27T20:23:07.463Z,4.03
2022-09-27T20:25:53.727Z,3.27
2022-09-27T20:28:43.710Z,5.83
2022-09-27T20:31:33.006Z,3.13
2022-09-27T20:34:19.379Z,6.27
2022-09-27T20:37:07.498Z,3.43
2022-09-27T20:39:53.888Z,3.30
2022-09-27T20:42:40.208Z,5.67
2022-09-27T20:45:27.867Z,4.90
2022-09-27T20:48:14.509Z,3.63
2022-09-27T20:51:04.669Z,3.20
2022-09-27T20:53:51.972Z,4.27
2022-09-27T20:56:40.691Z,2.50
2022-09-27T20:59:27.395Z,3.93
2022-09-27T21:02:15.302Z,3.80
2022-09-27T21:05:02.155Z,2.63
2022-09-27T21:07:48.569Z,4.33
2022-09-27T21:10:35.174Z,3.77
2022-09-27T21:13:23.134Z,3.50
2022-09-27T21:16:11.009Z,4.17
2022-09-27T21:18:59.684Z,6.10
2022-09-27T21:21:46.544Z,4.97
2022-09-27T21:24:32.911Z,6.80
2022-09-27T21:27:19.452Z,4.20
2022-09-27T21:30:07.025Z,4.30
2022-09-27T21:32:57.395Z,2.47
2022-09-27T21:35:50.773Z,5.90
2022-09-27T21:38:37.099Z,5.07
2022-09-27T21:41:24.003Z,2.30
2022-09-27T21:44:12.340Z,2.40
2022-09-27T21:46:58.599Z,3.33
2022-09-27T21:49:45.398Z,5.93
2022-09-27T21:52:33.234Z,4.43
2022-09-27T21:55:19.772Z,4.77
2022-09-27T21:58:06.130Z,2.30
2022-09-27T22:00:52.507Z,2.63
2022-09-27T22:03:39.860Z,2.93
2022-09-27T22:06:28.751Z,2.30
2022-09-27T22:09:17.923Z,3.90
2022-09-27T22:12:04.961Z,5.10
2022-09-27T22:14:51.443Z,4.80
2022-09-27T22:17:37.707Z,6.93
2022-09-27T22:20:24.133Z,3.90
2022-09-27T22:23:10.526Z,3.67
2022-09-27T22:25:58.164Z,4.73
2022-09-27T22:28:46.122Z,4.17
2022-09-27T22:31:32.978Z,3.40
2022-09-27T22:34:28.870Z,6.33
2022-09-27T22:37:15.866Z,5.83
2022-09-27T22:40:02.656Z,5.13
2022-09-27T22:42:51.382Z,7.13
2022-09-27T22:45:38.204Z,4.60
2022-09-27T22:48:24.780Z,5.73
2022-09-27T22:51:11.486Z,6.27
2022-09-27T22:53:57.874Z,5.30
2022-09-27T22:56:44.210Z,7.40
2022-09-27T22:59:32.062Z,6.20
2022-09-27T23:02:18.758Z,8.67
2022-09-27T23:05:05.661Z,6.63
2022-09-27T23:07:52.888Z,5.47
2022-09-27T23:10:40.337Z,5.83
2022-09-27T23:13:31.546Z,6.07
2022-09-27T23:16:21.022Z,4.70
2022-09-27T23:19:07.993Z,5.30
2022-09-27T23:21:54.413Z,5.27
2022-09-27T23:24:40.919Z,6.37
2022-09-27T23:27:46.107Z,7.47
2022-09-27T23:30:32.719Z,9.07
2022-09-27T23:33:22.037Z,7.33
2022-09-27T23:36:10.587Z,6.53
2022-09-27T23:39:00.364Z,5.47
2022-09-27T23:41:47.774Z,9.67
2022-09-27T23:44:34.384Z,8.07
2022-09-27T23:47:20.934Z,8.63
2022-09-27T23:50:10.488Z,8.53
2022-09-27T23:52:57.141Z,6.07
2022-09-27T23:55:43.384Z,8.73
2022-09-27T23:58:30.507Z,7.37
